Perth International Airport
YPPH : now visible

Airfield :











YOU CAN JOIN US ON...

 
LOGIN :

Register | Disclaimer

   EN    FR    IT 

 









Legend :    VFR   Marginal VFR   IFR   Intensive IFR   Very Intensive IFR
Visi :
Ceiling :
>= 8 km
>= 3000ft
5 to 8 km
1000 to 3000 ft
1500m to 5 km
500 to 1000 ft
800 to 1500m
200 to 500 ft
< 800m
< 200 ft
Symbols :   Thunderstorms  Fog  Heavy snow  Heavy precipitations  Wind > 20 kt






- Airport Elevation : 67 ft
- IATA code : PER


YPPH - Perth International

CURRENT METAR :
  • 060100Z 05008KT CAVOK 13/05 Q1027

EXPIRED METARs :
  • 060030Z 06007KT CAVOK 12/04 Q1027
  • 060000Z 06008KT CAVOK 10/04 Q1026
  • 052330Z 05007KT CAVOK 09/03 Q1026
  • 052300Z 05006KT CAVOK 08/03 Q1026
  • 052230Z 04006KT CAVOK 09/03 Q1026

TAF TAF YPPH
Valid from the 06 at 00:00 until the 07 at 06:00 UTC


052312Z 0600/0706 04007KT CAVOK
FM060200 02013KT CAVOK
FM061000 04006KT CAVOK
FM070100 36012KT CAVOK
YMMM FIR / Oceania



MET'MAP, your aeronautical weather chart ! - Copyright ORBIFLY December 2007 - Disclaimer

ORBIFLY MET'MAP TEAM :

Programming & Development : Alexandra Zaïnal
Concept & original design : Baudouin d'Aumeries
Assistance for programming : Marc-Olivier Méhu
Technical & hardware support : Manuel Goepfert

Contact : metmap@orbifly.com




SOURCES & CREDITS :

   NOAA       Earth
Advisory